Time;durP1;ratioP1;P1;durP2;ratioP2;P2;SDS_P1;SDS_P2;PMS_P1;PMS_P2;Temp;Humidity;BMP_temperature;BMP_pressure;BME280_temperature;BME280_humidity;BME280_pressure;Samples;Min_cycle;Max_cycle;Signal;HPM_P1;HPM_P2
2022/04/16 00:01:42;;;;;;;95.88;52.80;;;;;;;7.41;70.19;94640.19;5029193;28;20383;-50
2022/04/16 00:04:09;;;;;;;15.00;8.77;;;;;;;7.29;71.23;94643.19;5030196;28;20076;-51
2022/04/16 00:06:37;;;;;;;15.48;9.05;;;;;;;7.34;70.80;94640.09;5011617;28;20082;-47
2022/04/16 00:09:03;;;;;;;11.77;7.43;;;;;;;7.31;70.22;94638.16;5010350;28;20060;-49
2022/04/16 00:11:30;;;;;;;10.90;5.97;;;;;;;7.14;70.71;94643.06;5009778;28;20077;-50
2022/04/16 00:13:57;;;;;;;10.10;6.72;;;;;;;6.92;71.23;94638.53;5019161;28;20041;-46
2022/04/16 00:16:23;;;;;;;10.67;6.40;;;;;;;6.97;71.61;94640.94;5009728;28;20052;-47
2022/04/16 00:18:50;;;;;;;9.93;6.65;;;;;;;7.05;71.50;94639.06;5010230;28;20046;-52
2022/04/16 00:21:17;;;;;;;10.07;6.70;;;;;;;6.93;71.18;94629.22;5009745;28;20042;-50
2022/04/16 00:23:44;;;;;;;10.93;6.93;;;;;;;6.84;71.70;94642.34;5010343;28;20537;-51
2022/04/16 00:26:14;;;;;;;11.20;6.70;;;;;;;6.94;71.17;94642.50;5008709;28;20061;-48
2022/04/16 00:28:40;;;;;;;10.17;6.23;;;;;;;6.83;71.56;94638.06;5019778;28;20753;-49
2022/04/16 00:31:07;;;;;;;10.18;6.13;;;;;;;6.86;71.46;94631.84;5033278;28;20057;-51
2022/04/16 00:33:34;;;;;;;9.13;6.30;;;;;;;6.76;72.01;94633.31;5032806;28;20051;-50
2022/04/16 00:36:01;;;;;;;11.63;8.52;;;;;;;6.48;72.78;94639.22;5033004;28;20053;-50
2022/04/16 00:38:28;;;;;;;22.75;13.23;;;;;;;6.57;73.68;94642.47;5032801;28;20054;-51
2022/04/16 00:40:55;;;;;;;44.47;23.23;;;;;;;6.59;73.80;94640.13;5033236;28;20067;-48
2022/04/16 00:43:24;;;;;;;19.58;10.90;;;;;;;6.53;73.63;94636.19;5032392;28;20053;-48
2022/04/16 00:45:54;;;;;;;11.93;7.32;;;;;;;6.61;72.89;94637.81;5033315;28;20387;-45
2022/04/16 00:48:22;;;;;;;13.68;7.05;;;;;;;6.65;73.16;94632.41;5032500;28;20425;-49
2022/04/16 00:50:54;;;;;;;9.80;6.65;;;;;;;6.55;72.94;94631.91;5032829;28;20064;-50
2022/04/16 00:53:21;;;;;;;10.60;6.83;;;;;;;6.53;72.89;94631.50;5032523;28;20061;-48
2022/04/16 00:55:48;;;;;;;10.68;6.65;;;;;;;6.53;72.98;94633.44;5033003;28;20053;-51
2022/04/16 00:58:15;;;;;;;10.48;6.80;;;;;;;6.45;73.41;94629.06;5032205;28;20042;-47
2022/04/16 01:00:42;;;;;;;10.63;6.38;;;;;;;6.43;73.20;94628.66;5032736;28;20423;-52
2022/04/16 01:03:09;;;;;;;10.57;6.88;;;;;;;6.25;73.26;94639.34;5032911;28;20049;-46
2022/04/16 01:05:37;;;;;;;11.77;6.80;;;;;;;6.19;73.18;94634.19;5032365;28;20091;-46
2022/04/16 01:08:04;;;;;;;10.70;6.72;;;;;;;6.23;73.72;94644.38;5032723;28;20049;-48
2022/04/16 01:10:33;;;;;;;11.63;6.93;;;;;;;6.22;74.10;94635.41;5032296;28;20049;-51
2022/04/16 01:13:05;;;;;;;11.07;6.65;;;;;;;6.23;73.73;94638.94;5032640;28;20064;-48
2022/04/16 01:15:32;;;;;;;10.27;6.63;;;;;;;6.24;74.01;94640.47;5030822;28;20091;-51
2022/04/16 01:18:02;;;;;;;14.80;7.20;;;;;;;6.25;73.95;94636.63;5032611;28;20041;-47
2022/04/16 01:20:33;;;;;;;10.77;6.60;;;;;;;6.23;74.61;94634.25;5031775;28;20045;-49
2022/04/16 01:23:01;;;;;;;11.15;6.10;;;;;;;6.28;74.91;94633.13;5032696;28;20048;-48
2022/04/16 01:25:32;;;;;;;10.32;5.97;;;;;;;6.34;74.82;94637.13;5031815;28;20050;-48
2022/04/16 01:28:01;;;;;;;10.55;5.90;;;;;;;6.39;75.38;94634.84;5032095;28;20068;-51
2022/04/16 01:30:29;;;;;;;10.87;6.00;;;;;;;6.42;75.35;94635.25;5032045;28;20045;-46
2022/04/16 01:32:55;;;;;;;9.90;5.95;;;;;;;6.42;75.82;94633.34;5032216;28;20041;-50
2022/04/16 01:35:23;;;;;;;9.52;5.55;;;;;;;6.46;75.88;94631.44;5031621;28;20053;-48
2022/04/16 01:37:50;;;;;;;10.10;6.10;;;;;;;6.48;76.00;94626.41;5031860;28;20037;-51
2022/04/16 01:40:17;;;;;;;10.45;5.78;;;;;;;6.49;75.67;94629.91;5030361;28;20118;-48
2022/04/16 01:42:46;;;;;;;9.60;5.57;;;;;;;6.39;75.11;94634.84;5032120;28;20047;-47
2022/04/16 01:45:17;;;;;;;9.05;5.50;;;;;;;6.38;75.22;94632.50;5031455;28;20041;-47
2022/04/16 01:47:45;;;;;;;11.20;5.68;;;;;;;6.40;77.24;94625.53;5032059;28;20041;-48
2022/04/16 01:50:12;;;;;;;12.82;5.65;;;;;;;6.52;77.33;94626.41;5027341;28;20071;-51
2022/04/16 01:52:41;;;;;;;10.50;5.97;;;;;;;6.13;77.33;94635.69;5019712;28;20890;-47
2022/04/16 01:55:09;;;;;;;24.30;13.23;;;;;;;6.31;76.81;94638.63;5012197;28;20061;-53
2022/04/16 01:57:37;;;;;;;16.42;9.15;;;;;;;6.40;77.24;94639.16;5011460;28;20049;-46
2022/04/16 02:00:09;;;;;;;11.75;5.85;;;;;;;6.49;77.98;94638.84;5011778;28;20046;-46
2022/04/16 02:02:36;;;;;;;10.05;5.70;;;;;;;6.56;77.20;94628.03;5011726;28;20050;-53
2022/04/16 02:05:05;;;;;;;11.38;6.28;;;;;;;6.52;77.81;94629.13;5027067;28;20046;-54
2022/04/16 02:07:32;;;;;;;12.20;5.80;;;;;;;6.55;77.44;94628.41;5018849;28;20056;-46
2022/04/16 02:10:00;;;;;;;10.10;5.90;;;;;;;6.53;77.60;94617.09;5031456;28;20041;-51
2022/04/16 02:12:27;;;;;;;11.73;6.05;;;;;;;6.51;77.86;94619.41;5031017;28;20045;-51
2022/04/16 02:14:54;;;;;;;11.00;6.25;;;;;;;6.05;77.43;94612.22;5031703;28;20151;-50
2022/04/16 02:17:21;;;;;;;9.57;5.80;;;;;;;6.22;76.76;94619.06;5030826;28;20060;-48
2022/04/16 02:19:48;;;;;;;11.07;6.00;;;;;;;6.19;77.82;94617.06;5031026;28;20290;-49
2022/04/16 02:22:16;;;;;;;10.75;6.15;;;;;;;6.21;78.50;94617.47;5031043;28;20048;-50
2022/04/16 02:24:46;;;;;;;10.65;5.80;;;;;;;6.19;78.45;94606.94;5031284;28;20037;-46
2022/04/16 02:27:14;;;;;;;12.55;6.35;;;;;;;6.19;77.85;94611.63;5029476;28;20049;-47
2022/04/16 02:29:42;;;;;;;11.07;6.63;;;;;;;6.13;77.57;94610.38;5031229;28;20042;-47
2022/04/16 02:32:08;;;;;;;10.27;6.00;;;;;;;5.97;78.44;94616.78;5031309;28;20053;-50
2022/04/16 02:34:35;;;;;;;10.45;5.82;;;;;;;5.98;78.98;94609.41;5030688;28;20045;-51
2022/04/16 02:37:02;;;;;;;10.20;6.07;;;;;;;6.10;79.15;94609.19;5030955;28;20103;-45
2022/04/16 02:39:29;;;;;;;11.57;6.25;;;;;;;6.16;78.86;94604.97;5030363;28;20051;-48
2022/04/16 02:41:55;;;;;;;11.43;6.50;;;;;;;6.10;79.16;94611.91;5029764;28;20042;-50
2022/04/16 02:47:08;;;;;;;10.88;6.10;;;;;;;6.13;78.68;94611.16;5029934;28;20053;-48
2022/04/16 02:49:39;;;;;;;11.80;6.13;;;;;;;6.11;78.71;94608.00;5028705;28;20068;-46
2022/04/16 02:52:09;;;;;;;11.63;6.10;;;;;;;6.08;78.81;94614.22;5017238;28;20045;-50
2022/04/16 02:54:37;;;;;;;10.88;5.97;;;;;;;6.10;77.93;94616.59;5030272;28;20160;-50
2022/04/16 02:57:04;;;;;;;12.67;6.07;;;;;;;6.09;78.55;94618.50;5030769;28;20150;-51
2022/04/16 02:59:35;;;;;;;12.18;5.90;;;;;;;6.00;78.23;94613.34;5030246;28;20418;-46
2022/04/16 03:02:03;;;;;;;12.15;6.72;;;;;;;5.98;78.47;94620.31;5030782;28;20064;-47
2022/04/16 03:04:30;;;;;;;10.18;5.97;;;;;;;5.94;78.29;94619.44;5030352;28;20050;-49
2022/04/16 03:06:57;;;;;;;12.27;6.15;;;;;;;5.86;79.54;94615.06;5030521;28;20048;-47
2022/04/16 03:09:23;;;;;;;11.87;6.80;;;;;;;5.77;79.60;94610.63;5030313;28;20059;-50
2022/04/16 03:11:50;;;;;;;11.77;6.55;;;;;;;5.81;79.44;94605.25;5030804;28;20049;-48
2022/04/16 03:19:47;;;;;;;11.85;6.10;;;;;;;5.62;80.46;94600.72;5029182;28;20045;-46
2022/04/16 03:22:15;;;;;;;14.10;7.10;;;;;;;5.58;80.78;94597.16;5030081;28;20104;-54
2022/04/16 03:24:42;;;;;;;12.68;6.80;;;;;;;5.62;80.56;94608.09;5029252;28;20052;-47
2022/04/16 03:27:09;;;;;;;13.10;6.47;;;;;;;5.64;80.85;94598.41;5030453;28;20042;-46
2022/04/16 03:29:36;;;;;;;12.82;6.82;;;;;;;5.66;80.47;94611.66;5028301;28;20053;-47
2022/04/16 03:32:03;;;;;;;12.93;6.65;;;;;;;5.65;80.72;94613.56;5030290;28;20057;-46
2022/04/16 03:34:30;;;;;;;13.20;7.03;;;;;;;5.64;81.05;94620.19;5029847;28;20045;-47
2022/04/16 03:36:57;;;;;;;14.13;6.97;;;;;;;5.59;80.51;94612.31;5030013;28;20052;-53
2022/04/16 03:39:24;;;;;;;13.35;6.93;;;;;;;5.62;80.26;94606.16;5029841;28;20072;-46
2022/04/16 03:41:51;;;;;;;13.30;7.35;;;;;;;5.51;81.12;94616.09;5030484;28;20046;-51
2022/04/16 03:44:18;;;;;;;14.65;7.35;;;;;;;5.53;81.04;94617.31;5029346;28;20049;-46
2022/04/16 03:46:45;;;;;;;13.57;7.57;;;;;;;5.52;81.37;94610.28;5030229;28;20048;-46
2022/04/16 03:49:12;;;;;;;15.57;7.88;;;;;;;5.51;81.73;94618.81;5028517;28;20087;-45
2022/04/16 03:51:39;;;;;;;13.55;7.78;;;;;;;5.59;81.26;94615.84;5018254;28;20046;-46
2022/04/16 04:02:22;;;;;;;14.80;7.70;;;;;;;5.72;80.40;94640.94;5032391;28;20457;-47
2022/04/16 04:04:49;;;;;;;19.25;11.88;;;;;;;5.64;80.73;94650.13;5033971;28;20050;-50
2022/04/16 04:07:16;;;;;;;15.38;8.43;;;;;;;5.65;80.45;94640.03;5033279;28;20091;-54
2022/04/16 04:09:44;;;;;;;14.98;8.40;;;;;;;5.59;80.76;94639.56;5032473;28;20040;-46
2022/04/16 04:12:12;;;;;;;15.13;8.27;;;;;;;5.63;80.51;94645.84;5033779;28;20054;-45
2022/04/16 04:14:44;;;;;;;15.77;8.63;;;;;;;5.67;80.01;94640.44;5033078;28;20041;-47
2022/04/16 04:17:12;;;;;;;15.70;8.73;;;;;;;5.48;81.01;94635.88;5033557;28;20088;-53
2022/04/16 04:19:41;;;;;;;16.70;8.80;;;;;;;5.60;80.53;94641.13;5031447;28;20041;-48
2022/04/16 04:22:10;;;;;;;15.05;8.63;;;;;;;5.60;80.58;94636.47;5033582;28;20075;-49
2022/04/16 04:24:38;;;;;;;17.33;9.03;;;;;;;5.53;80.74;94639.09;5032930;28;20064;-48
2022/04/16 04:27:06;;;;;;;17.13;9.25;;;;;;;5.52;80.49;94642.97;5033610;28;20046;-46
2022/04/16 04:29:34;;;;;;;19.15;9.20;;;;;;;5.50;80.43;94639.81;5032609;28;20118;-50
2022/04/16 04:32:01;;;;;;;16.58;9.00;;;;;;;5.45;80.97;94631.16;5033537;28;20045;-48
2022/04/16 04:34:27;;;;;;;15.82;8.70;;;;;;;5.46;80.61;94635.47;5031723;28;20080;-47
2022/04/16 04:36:54;;;;;;;15.77;8.30;;;;;;;5.43;80.46;94639.69;5033196;28;20076;-46
2022/04/16 04:39:24;;;;;;;16.00;8.93;;;;;;;5.45;80.57;94639.31;5031631;28;20053;-51
2022/04/16 04:41:50;;;;;;;17.13;9.32;;;;;;;5.40;80.18;94643.16;5033261;28;20087;-47
2022/04/16 04:44:17;;;;;;;19.45;10.23;;;;;;;5.40;80.34;94648.59;5032498;28;20533;-50
2022/04/16 04:46:51;;;;;;;17.17;9.55;;;;;;;5.43;79.76;94649.78;5033362;28;20037;-49
2022/04/16 04:49:18;;;;;;;20.10;10.63;;;;;;;5.43;79.59;94647.84;5032771;28;20055;-53
2022/04/16 04:51:45;;;;;;;16.15;9.13;;;;;;;5.49;79.59;94648.34;5020297;28;20046;-50
2022/04/16 04:54:11;;;;;;;13.85;7.38;;;;;;;5.43;79.31;94645.13;5027020;28;20045;-47
2022/04/16 04:56:38;;;;;;;15.07;7.43;;;;;;;5.35;79.25;94657.88;5032137;28;21821;-55
2022/04/16 04:59:05;;;;;;;12.20;6.70;;;;;;;5.34;78.81;94645.38;5032386;28;20057;-51
2022/04/16 05:01:31;;;;;;;12.33;6.83;;;;;;;5.46;78.01;94649.88;5032529;28;20042;-49
2022/04/16 05:03:58;;;;;;;11.80;6.55;;;;;;;5.44;77.42;94654.09;5032992;28;20063;-53
2022/04/16 05:06:25;;;;;;;10.75;6.10;;;;;;;5.52;77.71;94656.56;5032207;28;20050;-48
2022/04/16 05:08:52;;;;;;;10.50;5.85;;;;;;;5.46;76.94;94660.75;5032486;28;20072;-49
2022/04/16 05:11:19;;;;;;;9.82;5.57;;;;;;;5.51;76.60;94656.94;5032281;28;20046;-52
2022/04/16 05:13:45;;;;;;;9.50;5.33;;;;;;;5.65;76.33;94668.03;5031851;28;20520;-49
2022/04/16 05:16:13;;;;;;;9.85;5.18;;;;;;;5.39;76.59;94671.50;5032149;28;20046;-45
2022/04/16 05:18:41;;;;;;;10.23;5.30;;;;;;;5.58;75.96;94681.56;5032732;28;20384;-48
2022/04/16 05:21:08;;;;;;;9.60;4.90;;;;;;;5.67;75.57;94673.91;5025859;28;20051;-46
2022/04/16 05:23:39;;;;;;;10.48;5.65;;;;;;;5.62;75.21;94681.63;5027574;28;20402;-48
2022/04/16 05:26:08;;;;;;;10.10;4.90;;;;;;;5.80;74.77;94682.69;5012816;28;20061;-45
2022/04/16 05:28:36;;;;;;;8.80;4.95;;;;;;;5.90;74.58;94690.22;5017951;28;20052;-51
2022/04/16 05:31:04;;;;;;;9.68;5.00;;;;;;;5.96;73.92;94690.72;5032599;28;20053;-48
2022/04/16 05:36:17;;;;;;;9.43;4.45;;;;;;;5.92;73.93;94679.75;5031896;28;20042;-47
2022/04/16 05:38:44;;;;;;;8.60;4.53;;;;;;;5.98;73.62;94680.25;5031948;28;20053;-49
2022/04/16 05:41:11;;;;;;;7.90;4.40;;;;;;;6.04;73.49;94686.16;5032112;28;20050;-49
2022/04/16 05:43:38;;;;;;;8.85;4.72;;;;;;;5.96;73.41;94690.72;5031067;28;20843;-45
2022/04/16 05:46:05;;;;;;;8.52;4.30;;;;;;;6.12;72.54;94694.06;5032011;28;20052;-46
2022/04/16 05:48:32;;;;;;;9.52;4.80;;;;;;;6.19;72.48;94694.16;5031365;28;20083;-51
2022/04/16 05:50:59;;;;;;;8.60;4.80;;;;;;;6.37;71.71;94691.69;5031703;28;20037;-45
2022/04/16 05:53:26;;;;;;;8.30;4.50;;;;;;;6.44;71.65;94696.47;5030985;28;20042;-47
2022/04/16 05:55:53;;;;;;;8.85;4.50;;;;;;;6.43;71.46;94691.38;5031985;28;20037;-50
2022/04/16 05:58:20;;;;;;;7.60;4.30;;;;;;;6.46;71.51;94690.59;5030797;28;20049;-51
2022/04/16 06:00:48;;;;;;;7.85;4.50;;;;;;;6.55;71.29;94699.31;5031635;28;20064;-47
2022/04/16 06:03:19;;;;;;;8.10;4.27;;;;;;;6.51;71.29;94701.22;5031133;28;20048;-45
2022/04/16 06:05:46;;;;;;;7.68;4.43;;;;;;;6.65;70.16;94701.38;5013628;28;20076;-49
2022/04/16 06:08:13;;;;;;;8.07;4.10;;;;;;;6.67;70.05;94699.06;5030902;28;20056;-51
2022/04/16 06:10:40;;;;;;;7.32;4.10;;;;;;;6.80;69.96;94697.69;5031569;28;20512;-49
2022/04/16 06:13:10;;;;;;;7.40;4.15;;;;;;;6.87;69.65;94696.19;5031466;28;20058;-51
2022/04/16 06:15:41;;;;;;;7.60;4.23;;;;;;;6.95;69.84;94689.66;5030973;28;20487;-50
2022/04/16 06:18:11;;;;;;;8.07;3.83;;;;;;;7.03;69.24;94690.53;5030129;28;20057;-47
2022/04/16 06:20:38;;;;;;;8.63;4.35;;;;;;;7.04;69.00;94692.84;5030061;28;20092;-49
2022/04/16 06:23:06;;;;;;;8.60;3.92;;;;;;;7.34;68.49;94694.72;5031193;28;20072;-52
2022/04/16 06:25:33;;;;;;;7.10;3.95;;;;;;;7.27;68.07;94686.47;5027842;28;20079;-48
2022/04/16 06:28:00;;;;;;;7.27;3.87;;;;;;;7.46;67.40;94702.63;5013785;28;20030;-53
2022/04/16 06:30:27;;;;;;;7.93;4.30;;;;;;;7.38;67.11;94703.72;5030811;28;20486;-53
2022/04/16 06:32:53;;;;;;;7.47;4.00;;;;;;;8.99;63.11;94693.06;5030849;28;20056;-49
2022/04/16 06:35:20;;;;;;;8.52;4.60;;;;;;;10.65;55.78;94691.97;5030281;28;20045;-47
2022/04/16 06:37:47;;;;;;;6.38;3.83;;;;;;;11.75;52.36;94689.81;5030813;28;20048;-49
2022/04/16 06:40:14;;;;;;;6.50;3.90;;;;;;;9.88;58.29;94708.09;5029316;28;20379;-49
2022/04/16 06:42:41;;;;;;;7.57;4.00;;;;;;;10.70;55.47;94696.25;5029583;28;20045;-53
2022/04/16 06:45:09;;;;;;;7.50;4.30;;;;;;;11.94;53.27;94698.75;5030779;28;20048;-49
2022/04/16 06:47:36;;;;;;;6.85;3.90;;;;;;;13.51;47.54;94695.50;5030126;28;20041;-46
2022/04/16 06:50:05;;;;;;;6.90;4.20;;;;;;;10.31;54.72;94706.16;5030706;28;20328;-47
2022/04/16 06:52:32;;;;;;;7.87;4.00;;;;;;;9.23;58.80;94715.44;5030443;28;20042;-49
2022/04/16 06:54:59;;;;;;;6.90;4.00;;;;;;;10.50;55.53;94709.63;5030926;28;20044;-49
2022/04/16 06:57:26;;;;;;;6.50;3.80;;;;;;;10.48;55.78;94704.53;5030570;28;20053;-46
2022/04/16 06:59:59;;;;;;;7.88;3.83;;;;;;;10.96;54.07;94705.97;5030517;28;20061;-51
2022/04/16 07:02:26;;;;;;;7.40;3.85;;;;;;;9.93;55.86;94713.97;5030152;28;20064;-49
2022/04/16 07:04:53;;;;;;;6.13;3.73;;;;;;;14.63;45.97;94703.59;5030469;28;20041;-49
2022/04/16 07:07:20;;;;;;;6.20;3.63;;;;;;;14.83;44.27;94694.53;5029844;28;20045;-52
2022/04/16 07:09:47;;;;;;;5.57;3.30;;;;;;;14.66;43.51;94694.44;5030468;28;20071;-47
2022/04/16 07:12:14;;;;;;;5.53;3.30;;;;;;;16.23;41.03;94702.59;5030218;28;20046;-49
2022/04/16 07:14:41;;;;;;;5.97;3.70;;;;;;;16.93;39.41;94690.91;5030376;28;20037;-49
2022/04/16 07:17:08;;;;;;;6.50;3.30;;;;;;;16.07;40.51;94692.31;5030556;28;20050;-50
2022/04/16 07:19:36;;;;;;;6.80;3.90;;;;;;;13.19;46.94;94718.72;5029478;28;20448;-46
2022/04/16 07:22:03;;;;;;;5.35;3.40;;;;;;;13.75;44.24;94705.38;5029858;28;20051;-49
2022/04/16 07:24:30;;;;;;;5.03;3.15;;;;;;;16.22;39.62;94699.06;5027418;28;20049;-47
2022/04/16 07:26:57;;;;;;;5.20;3.40;;;;;;;14.85;42.42;94690.16;5017408;28;20042;-47
2022/04/16 07:29:26;;;;;;;6.63;3.57;;;;;;;12.44;47.72;94698.31;5023483;28;20072;-50
2022/04/16 07:31:53;;;;;;;6.18;3.50;;;;;;;11.30;51.00;94703.44;5030333;28;20047;-50
2022/04/16 07:34:20;;;;;;;6.43;3.70;;;;;;;10.03;53.97;94717.13;5029440;28;20052;-49
2022/04/16 07:36:47;;;;;;;5.75;3.40;;;;;;;11.17;51.81;94707.84;5031841;28;20149;-46
2022/04/16 07:39:14;;;;;;;6.30;3.80;;;;;;;8.94;57.19;94718.88;5033968;28;20049;-46
2022/04/16 07:41:41;;;;;;;6.53;4.00;;;;;;;9.05;58.14;94718.91;5033908;28;20045;-47
2022/04/16 07:44:08;;;;;;;6.22;3.63;;;;;;;10.37;54.24;94712.03;5034125;28;20052;-47
2022/04/16 07:46:35;;;;;;;5.65;3.40;;;;;;;9.54;56.37;94722.97;5033999;28;20052;-50
2022/04/16 07:49:03;;;;;;;6.15;3.42;;;;;;;9.99;55.43;94728.09;5034104;28;20494;-48
2022/04/16 07:51:30;;;;;;;7.38;4.07;;;;;;;9.70;56.38;94728.06;5033476;28;20051;-50
2022/04/16 07:53:57;;;;;;;6.77;3.80;;;;;;;9.56;57.11;94728.06;5034051;28;20064;-45
2022/04/16 07:56:26;;;;;;;25.05;4.75;;;;;;;9.53;56.96;94728.81;5033576;28;20045;-45
2022/04/16 07:58:56;;;;;;;8.68;3.75;;;;;;;9.78;56.09;94728.88;5033955;28;20071;-45
2022/04/16 08:01:22;;;;;;;32.15;5.05;;;;;;;12.37;49.32;94725.88;5033669;28;20045;-51
2022/04/16 08:03:49;;;;;;;5.95;4.00;;;;;;;12.50;48.22;94717.91;5034146;28;20045;-48
2022/04/16 08:06:16;;;;;;;7.07;3.53;;;;;;;15.47;42.36;94717.34;5033141;28;20401;-50
2022/04/16 08:08:43;;;;;;;9.35;3.50;;;;;;;13.76;44.48;94718.00;5032366;28;20064;-52
2022/04/16 08:11:11;;;;;;;5.85;3.20;;;;;;;12.31;48.25;94716.50;5033734;28;20049;-51
2022/04/16 08:13:37;;;;;;;6.43;3.20;;;;;;;12.57;48.17;94721.34;5032766;28;21537;-47
2022/04/16 08:16:05;;;;;;;21.25;3.95;;;;;;;13.09;46.67;94722.38;5032598;28;20046;-53
2022/04/16 08:18:32;;;;;;;7.87;3.10;;;;;;;13.41;45.60;94730.28;5033087;28;20042;-49
2022/04/16 08:20:59;;;;;;;4.82;3.03;;;;;;;11.86;49.11;94735.72;5033218;28;20042;-50
2022/04/16 08:23:29;;;;;;;4.90;2.80;;;;;;;11.20;50.65;94729.00;5031561;28;20049;-54
2022/04/16 08:25:56;;;;;;;5.40;2.97;;;;;;;11.72;49.29;94731.09;5027790;28;20045;-46
2022/04/16 08:28:22;;;;;;;6.18;3.30;;;;;;;11.34;49.56;94730.91;5018569;28;20042;-47
2022/04/16 08:30:50;;;;;;;5.10;2.90;;;;;;;11.12;49.90;94716.50;5033528;28;20034;-54
2022/04/16 08:33:17;;;;;;;7.15;3.40;;;;;;;10.05;51.74;94725.75;5032933;28;20530;-51
2022/04/16 08:35:45;;;;;;;5.93;3.03;;;;;;;10.24;51.84;94730.84;5033290;28;20037;-52
2022/04/16 08:38:13;;;;;;;8.75;3.30;;;;;;;9.59;53.60;94733.53;5033181;28;20051;-48
2022/04/16 08:40:41;;;;;;;6.30;2.70;;;;;;;10.17;52.66;94753.53;5032253;28;20218;-52
2022/04/16 08:43:13;;;;;;;5.13;2.80;;;;;;;10.24;52.11;94746.47;5032124;28;20052;-47
2022/04/16 08:45:41;;;;;;;5.00;3.03;;;;;;;9.98;51.72;94757.47;5032132;28;20394;-49
2022/04/16 08:48:08;;;;;;;6.07;2.72;;;;;;;10.16;50.33;94760.22;5031700;28;20037;-49
2022/04/16 08:50:36;;;;;;;4.68;2.72;;;;;;;9.72;53.15;94753.13;5031325;28;20398;-46
2022/04/16 08:53:03;;;;;;;4.40;2.70;;;;;;;10.34;51.24;94748.47;5033020;28;20045;-48
2022/04/16 08:55:30;;;;;;;4.97;2.70;;;;;;;10.31;50.09;94746.53;5032510;28;20053;-47
2022/04/16 08:57:57;;;;;;;4.88;2.95;;;;;;;9.79;51.54;94755.88;5032759;28;20497;-47
2022/04/16 09:00:24;;;;;;;4.43;2.65;;;;;;;11.19;48.90;94741.19;5030936;28;20045;-51
2022/04/16 09:02:59;;;;;;;4.03;2.40;;;;;;;12.23;45.83;94748.03;5032666;28;20053;-48
2022/04/16 09:05:27;;;;;;;5.55;2.70;;;;;;;11.28;47.45;94755.28;5032086;28;20396;-48
2022/04/16 09:07:56;;;;;;;6.17;2.60;;;;;;;12.03;45.47;94758.78;5032665;28;20049;-49
2022/04/16 09:10:28;;;;;;;6.63;2.60;;;;;;;13.02;43.68;94759.09;5032224;28;20053;-50
2022/04/16 09:12:57;;;;;;;4.15;2.45;;;;;;;11.63;46.14;94759.03;5032840;28;20041;-48
2022/04/16 09:15:25;;;;;;;6.15;2.55;;;;;;;11.35;45.52;94762.72;5031998;28;20068;-53
2022/04/16 09:18:00;;;;;;;4.55;2.40;;;;;;;12.32;43.43;94762.91;5032254;28;20045;-51
2022/04/16 09:20:35;;;;;;;5.27;2.40;;;;;;;11.94;43.96;94767.50;5031590;28;20067;-50
2022/04/16 09:23:22;;;;;;;5.05;2.40;;;;;;;14.95;39.24;94747.22;5032730;28;20156;-50
2022/04/16 09:25:50;;;;;;;3.97;2.20;;;;;;;18.93;31.82;94758.25;5031623;28;20643;-46
2022/04/16 09:28:19;;;;;;;4.72;2.10;;;;;;;18.24;31.68;94755.34;5031872;28;20108;-50
2022/04/16 09:30:54;;;;;;;3.72;2.00;;;;;;;15.67;35.19;94745.75;5032454;28;20049;-51
2022/04/16 09:33:21;;;;;;;4.77;2.43;;;;;;;12.41;41.96;94764.41;5031704;28;20045;-50
2022/04/16 09:35:57;;;;;;;4.35;2.60;;;;;;;12.84;41.07;94759.28;5032048;28;20060;-50
2022/04/16 09:38:30;;;;;;;4.53;2.65;;;;;;;15.57;35.99;94761.38;5030302;28;20060;-50
2022/04/16 09:41:04;;;;;;;3.15;2.05;;;;;;;14.08;37.38;94771.13;5031764;28;20042;-50
2022/04/16 09:43:37;;;;;;;3.58;2.20;;;;;;;14.56;37.88;94758.94;5031504;28;20094;-51
2022/04/16 09:46:12;;;;;;;3.63;2.40;;;;;;;15.53;36.76;94755.16;5031798;28;20045;-51
2022/04/16 09:48:39;;;;;;;3.95;2.28;;;;;;;19.53;29.79;94762.88;5030973;28;21661;-55
2022/04/16 09:51:07;;;;;;;6.10;2.00;;;;;;;17.32;32.84;94765.91;5031669;28;20053;-50
2022/04/16 09:53:36;;;;;;;4.95;2.40;;;;;;;15.28;36.23;94763.16;5031311;28;20038;-49
2022/04/16 09:56:10;;;;;;;3.83;2.20;;;;;;;13.76;39.28;94764.09;5031595;28;20063;-54
2022/04/16 09:58:40;;;;;;;5.57;2.27;;;;;;;13.38;40.20;94766.94;5031397;28;20387;-50
2022/04/16 10:01:10;;;;;;;4.85;2.30;;;;;;;13.11;40.84;94767.63;5031825;28;20050;-49
2022/04/16 10:03:39;;;;;;;3.63;2.10;;;;;;;13.78;39.73;94765.25;5031043;28;20531;-50
2022/04/16 10:06:06;;;;;;;3.88;2.10;;;;;;;13.89;38.90;94761.56;5031557;28;20076;-54
2022/04/16 10:08:34;;;;;;;3.90;2.10;;;;;;;15.85;35.29;94762.00;5031179;28;20049;-52
2022/04/16 10:11:03;;;;;;;3.23;1.93;;;;;;;16.90;33.23;94763.88;5031401;28;20041;-47
2022/04/16 10:13:38;;;;;;;4.45;2.40;;;;;;;14.65;37.17;94775.78;5030920;28;20045;-52
2022/04/16 10:16:10;;;;;;;6.22;2.40;;;;;;;16.41;34.54;94768.66;5031503;28;20494;-46
2022/04/16 10:18:37;;;;;;;6.45;2.70;;;;;;;13.53;39.47;94784.88;5025900;28;20045;-49
2022/04/16 10:21:04;;;;;;;6.90;3.25;;;;;;;13.91;39.44;94790.28;5031312;28;20061;-53
2022/04/16 10:23:36;;;;;;;4.93;3.10;;;;;;;13.51;39.50;94781.75;5031294;28;20037;-52
2022/04/16 10:26:08;;;;;;;4.78;2.70;;;;;;;13.14;40.54;94779.81;5031200;28;20042;-49
2022/04/16 10:28:42;;;;;;;5.70;3.03;;;;;;;12.74;41.85;94796.75;5030294;28;20041;-47
2022/04/16 10:31:27;;;;;;;4.75;3.10;;;;;;;13.56;40.50;94800.63;5030931;28;20050;-54
2022/04/16 10:34:03;;;;;;;4.90;3.45;;;;;;;11.50;44.55;94802.69;5030266;28;20598;-49
2022/04/16 10:36:33;;;;;;;6.07;3.20;;;;;;;11.67;44.87;94800.25;5030928;28;20045;-47
2022/04/16 10:39:11;;;;;;;5.38;3.13;;;;;;;13.31;41.29;94800.91;5031046;28;20042;-47
2022/04/16 10:41:38;;;;;;;7.15;3.30;;;;;;;11.76;43.98;94808.84;5030506;28;20052;-52
2022/04/16 10:44:09;;;;;;;4.65;3.10;;;;;;;12.12;42.55;94801.19;5030791;28;20064;-54
2022/04/16 10:46:44;;;;;;;4.70;3.10;;;;;;;14.83;38.20;94794.00;5030602;28;20059;-53
2022/04/16 10:49:15;;;;;;;4.50;3.00;;;;;;;15.02;37.69;94798.81;5030703;28;20072;-47
2022/04/16 10:51:42;;;;;;;4.93;3.13;;;;;;;13.47;39.36;94799.53;5030025;28;21650;-53
2022/04/16 10:54:14;;;;;;;4.80;3.30;;;;;;;13.25;39.56;94815.53;5030900;28;20049;-55
2022/04/16 10:56:53;;;;;;;4.95;3.50;;;;;;;13.52;40.90;94810.91;5029858;28;20401;-49
2022/04/16 10:59:38;;;;;;;4.70;3.30;;;;;;;16.26;35.57;94805.00;5029048;28;20467;-50
2022/04/16 11:02:16;;;;;;;9.03;3.23;;;;;;;16.59;34.47;94807.78;5030725;28;20339;-52
2022/04/16 11:05:01;;;;;;;5.63;3.28;;;;;;;14.89;37.93;94806.13;5029926;28;20049;-53
2022/04/16 11:07:35;;;;;;;5.80;3.60;;;;;;;15.25;38.43;94817.34;5030110;28;20056;-51
2022/04/16 11:10:22;;;;;;;5.82;4.10;;;;;;;10.57;47.31;94827.66;5030367;28;20552;-47
2022/04/16 11:12:49;;;;;;;5.85;4.00;;;;;;;12.52;43.35;94820.94;5028153;28;20646;-49
2022/04/16 11:15:24;;;;;;;5.93;3.40;;;;;;;13.92;42.26;94815.91;5030100;28;20051;-50
2022/04/16 11:17:58;;;;;;;6.55;3.60;;;;;;;13.91;41.38;94817.09;5027557;28;20056;-48
2022/04/16 11:20:28;;;;;;;6.72;3.47;;;;;;;13.68;41.41;94820.56;5017312;28;20430;-47
2022/04/16 11:22:56;;;;;;;5.15;3.40;;;;;;;14.50;40.38;94813.84;5010482;28;20057;-46
2022/04/16 11:25:24;;;;;;;4.80;3.13;;;;;;;15.76;37.10;94803.31;5009910;28;20052;-47
2022/04/16 11:36:12;;;;;;;7.35;3.47;;;;;;;12.71;43.41;94819.59;5030476;28;20048;-50
2022/04/16 11:38:41;;;;;;;5.20;3.22;;;;;;;12.33;45.17;94821.47;5029369;28;20366;-46
2022/04/16 11:41:12;;;;;;;5.27;3.30;;;;;;;11.98;45.18;94815.81;5029730;28;20045;-46
2022/04/16 11:43:51;;;;;;;4.90;3.20;;;;;;;12.05;45.07;94814.19;5029106;28;20872;-51
2022/04/16 11:46:18;;;;;;;4.90;3.10;;;;;;;11.67;45.69;94814.78;5029160;28;20045;-53
2022/04/16 11:48:47;;;;;;;4.68;2.83;;;;;;;12.61;43.37;94820.47;5029289;28;20037;-54
2022/04/16 11:51:14;;;;;;;8.45;3.08;;;;;;;12.44;44.14;94811.16;5029736;28;20045;-50
2022/04/16 11:53:45;;;;;;;5.20;3.10;;;;;;;11.96;44.92;94809.94;5030011;28;20041;-54
2022/04/16 11:56:12;;;;;;;7.70;3.42;;;;;;;11.37;45.58;94815.31;5029765;28;20048;-49
2022/04/16 11:58:39;;;;;;;4.35;2.80;;;;;;;12.13;43.85;94811.00;5029115;28;21770;-48
2022/04/16 12:01:08;;;;;;;6.05;2.95;;;;;;;11.17;47.72;94823.22;5030051;28;20555;-50
2022/04/16 12:03:40;;;;;;;5.30;3.42;;;;;;;11.20;46.06;94817.72;5029541;28;20038;-49
2022/04/16 12:06:11;;;;;;;6.97;3.20;;;;;;;11.46;46.44;94812.91;5029379;28;20130;-54
2022/04/16 12:08:42;;;;;;;5.35;3.30;;;;;;;11.71;45.72;94820.25;5028793;28;20421;-47